sensor_id;sensor_type;location;lat;lon;timestamp;temperature;humidity
55151;DHT22;41041;43.162;20.538;2024-03-17T10:26:53;358.60;2329.60
55151;DHT22;41041;43.162;20.538;2024-03-17T10:31:59;358.70;2329.60
55151;DHT22;41041;43.162;20.538;2024-03-17T10:34:29;358.70;2329.60
55151;DHT22;41041;43.162;20.538;2024-03-17T10:39:45;333.70;2329.60
55151;DHT22;41041;43.162;20.538;2024-03-17T10:42:12;333.60;2329.60
55151;DHT22;41041;43.162;20.538;2024-03-17T10:44:43;333.50;2329.60
55151;DHT22;41041;43.162;20.538;2024-03-17T10:47:22;333.50;2329.60
55151;DHT22;41041;43.162;20.538;2024-03-17T10:49:54;333.50;2329.60
55151;DHT22;41041;43.162;20.538;2024-03-17T10:52:21;333.20;2329.60
55151;DHT22;41041;43.162;20.538;2024-03-17T10:54:54;333.30;2329.60
55151;DHT22;41041;43.162;20.538;2024-03-17T10:57:45;333.20;2329.60
55151;DHT22;41041;43.162;20.538;2024-03-17T11:00:16;333.10;2329.60
55151;DHT22;41041;43.162;20.538;2024-03-17T11:43:03;307.40;1920.00
55151;DHT22;41041;43.162;20.538;2024-03-17T11:45:30;307.40;2304.00
55151;DHT22;41041;43.162;20.538;2024-03-17T11:47:57;307.50;2304.00
55151;DHT22;41041;43.162;20.538;2024-03-17T11:50:23;307.50;2304.00
55151;DHT22;41041;43.162;20.538;2024-03-17T11:53:10;307.60;2304.00
55151;DHT22;41041;43.162;20.538;2024-03-17T11:55:36;307.70;2304.00
55151;DHT22;41041;43.162;20.538;2024-03-17T11:58:02;307.70;2304.00
55151;DHT22;41041;43.162;20.538;2024-03-17T12:00:28;307.90;2304.00
55151;DHT22;41041;43.162;20.538;2024-03-17T12:02:54;308.00;2304.00
55151;DHT22;41041;43.162;20.538;2024-03-17T12:05:21;308.10;2304.00
55151;DHT22;41041;43.162;20.538;2024-03-17T12:07:47;332.80;2329.60
55151;DHT22;41041;43.162;20.538;2024-03-17T12:10:13;332.80;2329.60
55151;DHT22;41041;43.162;20.538;2024-03-17T12:12:40;332.90;2329.60
55151;DHT22;41041;43.162;20.538;2024-03-17T12:15:19;332.90;2329.60
55151;DHT22;41041;43.162;20.538;2024-03-17T12:17:45;332.90;2329.60
55151;DHT22;41041;43.162;20.538;2024-03-17T12:20:19;333.00;2329.60
55151;DHT22;41041;43.162;20.538;2024-03-17T12:22:45;332.90;2329.60
55151;DHT22;41041;43.162;20.538;2024-03-17T12:25:21;332.90;2329.60
55151;DHT22;41041;43.162;20.538;2024-03-17T12:27:48;332.90;2329.60
55151;DHT22;41041;43.162;20.538;2024-03-17T12:30:15;332.90;2329.60
55151;DHT22;41041;43.162;20.538;2024-03-17T12:32:41;332.80;2329.60
55151;DHT22;41041;43.162;20.538;2024-03-17T12:35:16;332.90;2329.60
55151;DHT22;41041;43.162;20.538;2024-03-17T12:37:47;332.80;2329.60
55151;DHT22;41041;43.162;20.538;2024-03-17T12:40:21;308.10;2304.00
55151;DHT22;41041;43.162;20.538;2024-03-17T12:42:48;308.00;2304.00
55151;DHT22;41041;43.162;20.538;2024-03-17T12:45:21;308.00;2304.00
55151;DHT22;41041;43.162;20.538;2024-03-17T12:47:49;308.00;2304.00
55151;DHT22;41041;43.162;20.538;2024-03-17T12:50:16;307.90;2304.00
55151;DHT22;41041;43.162;20.538;2024-03-17T12:52:52;308.00;2304.00
55151;DHT22;41041;43.162;20.538;2024-03-17T12:55:19;308.10;2304.00
55151;DHT22;41041;43.162;20.538;2024-03-17T13:01:00;332.90;2329.60
55151;DHT22;41041;43.162;20.538;2024-03-17T13:03:34;333.00;2329.60
55151;DHT22;41041;43.162;20.538;2024-03-17T13:06:01;333.00;2329.60
55151;DHT22;41041;43.162;20.538;2024-03-17T13:08:28;333.10;2329.60
55151;DHT22;41041;43.162;20.538;2024-03-17T13:10:55;333.20;2329.60
55151;DHT22;41041;43.162;20.538;2024-03-17T13:13:21;333.10;2329.60
55151;DHT22;41041;43.162;20.538;2024-03-17T13:15:47;333.20;2329.60
55151;DHT22;41041;43.162;20.538;2024-03-17T13:18:20;333.10;2329.60
55151;DHT22;41041;43.162;20.538;2024-03-17T13:20:46;333.20;2329.60
55151;DHT22;41041;43.162;20.538;2024-03-17T13:23:13;333.10;2329.60
55151;DHT22;41041;43.162;20.538;2024-03-17T13:25:39;333.10;2329.60
55151;DHT22;41041;43.162;20.538;2024-03-17T13:28:05;333.00;2329.60
55151;DHT22;41041;43.162;20.538;2024-03-17T13:30:34;332.90;2329.60
55151;DHT22;41041;43.162;20.538;2024-03-17T13:33:02;332.90;2329.60
55151;DHT22;41041;43.162;20.538;2024-03-17T13:35:34;332.90;2329.60
55151;DHT22;41041;43.162;20.538;2024-03-17T13:38:01;332.90;2329.60
55151;DHT22;41041;43.162;20.538;2024-03-17T13:40:28;332.90;2329.60
55151;DHT22;41041;43.162;20.538;2024-03-17T13:42:56;332.90;2329.60
55151;DHT22;41041;43.162;20.538;2024-03-17T13:45:24;332.80;2329.60
55151;DHT22;41041;43.162;20.538;2024-03-17T13:48:01;332.80;2329.60
55151;DHT22;41041;43.162;20.538;2024-03-17T13:50:27;332.80;2329.60
55151;DHT22;41041;43.162;20.538;2024-03-17T13:52:53;332.80;2329.60
55151;DHT22;41041;43.162;20.538;2024-03-17T13:55:21;332.90;2329.60
55151;DHT22;41041;43.162;20.538;2024-03-17T13:57:55;332.90;2329.60
55151;DHT22;41041;43.162;20.538;2024-03-17T14:00:25;332.80;2329.60
55151;DHT22;41041;43.162;20.538;2024-03-17T14:02:55;332.80;2329.60
55151;DHT22;41041;43.162;20.538;2024-03-17T14:05:23;332.90;2329.60
55151;DHT22;41041;43.162;20.538;2024-03-17T14:07:51;332.90;2329.60
55151;DHT22;41041;43.162;20.538;2024-03-17T14:10:18;332.90;2329.60
55151;DHT22;41041;43.162;20.538;2024-03-17T14:12:44;332.90;2329.60
55151;DHT22;41041;43.162;20.538;2024-03-17T14:15:11;332.90;2329.60
55151;DHT22;41041;43.162;20.538;2024-03-17T14:17:43;332.80;2329.60
55151;DHT22;41041;43.162;20.538;2024-03-17T14:20:12;332.80;2329.60
55151;DHT22;41041;43.162;20.538;2024-03-17T14:22:40;308.10;2304.00
55151;DHT22;41041;43.162;20.538;2024-03-17T14:25:16;308.10;2304.00
55151;DHT22;41041;43.162;20.538;2024-03-17T14:27:43;308.10;2304.00
55151;DHT22;41041;43.162;20.538;2024-03-17T14:30:10;308.10;2304.00
55151;DHT22;41041;43.162;20.538;2024-03-17T14:32:39;308.10;2304.00
55151;DHT22;41041;43.162;20.538;2024-03-17T14:35:05;308.10;2304.00
55151;DHT22;41041;43.162;20.538;2024-03-17T14:37:31;332.80;2329.60
55151;DHT22;41041;43.162;20.538;2024-03-17T14:39:58;332.80;2329.60
55151;DHT22;41041;43.162;20.538;2024-03-17T14:42:34;332.90;2329.60
55151;DHT22;41041;43.162;20.538;2024-03-17T14:45:00;332.90;2329.60
55151;DHT22;41041;43.162;20.538;2024-03-17T14:47:28;333.00;2329.60
55151;DHT22;41041;43.162;20.538;2024-03-17T14:49:53;333.10;2329.60
55151;DHT22;41041;43.162;20.538;2024-03-17T14:52:19;333.00;2329.60
55151;DHT22;41041;43.162;20.538;2024-03-17T14:54:45;333.00;2329.60
55151;DHT22;41041;43.162;20.538;2024-03-17T14:57:14;332.90;2329.60
55151;DHT22;41041;43.162;20.538;2024-03-17T14:59:43;332.90;2329.60
55151;DHT22;41041;43.162;20.538;2024-03-17T15:02:09;332.90;2329.60
55151;DHT22;41041;43.162;20.538;2024-03-17T15:04:36;332.90;2329.60
55151;DHT22;41041;43.162;20.538;2024-03-17T15:07:08;332.90;2329.60
55151;DHT22;41041;43.162;20.538;2024-03-17T15:09:35;332.90;2329.60
55151;DHT22;41041;43.162;20.538;2024-03-17T15:12:01;332.90;2329.60
55151;DHT22;41041;43.162;20.538;2024-03-17T15:14:32;332.80;2329.60
55151;DHT22;41041;43.162;20.538;2024-03-17T15:17:20;332.80;2329.60
55151;DHT22;41041;43.162;20.538;2024-03-17T15:19:47;332.80;2329.60
55151;DHT22;41041;43.162;20.538;2024-03-17T15:22:13;332.80;2329.60
55151;DHT22;41041;43.162;20.538;2024-03-17T15:24:39;332.80;2329.60
55151;DHT22;41041;43.162;20.538;2024-03-17T15:27:05;332.80;2329.60
55151;DHT22;41041;43.162;20.538;2024-03-17T15:29:34;332.80;2329.60
55151;DHT22;41041;43.162;20.538;2024-03-17T15:31:59;332.80;2329.60
55151;DHT22;41041;43.162;20.538;2024-03-17T15:34:25;332.80;2329.60
55151;DHT22;41041;43.162;20.538;2024-03-17T15:36:53;332.80;2329.60
55151;DHT22;41041;43.162;20.538;2024-03-17T15:39:20;332.80;2329.60
55151;DHT22;41041;43.162;20.538;2024-03-17T15:41:47;332.80;2329.60
55151;DHT22;41041;43.162;20.538;2024-03-17T15:44:13;332.80;2329.60
55151;DHT22;41041;43.162;20.538;2024-03-17T15:46:52;308.10;2304.00
55151;DHT22;41041;43.162;20.538;2024-03-17T15:49:21;308.00;2304.00
55151;DHT22;41041;43.162;20.538;2024-03-17T15:51:49;308.00;2304.00
55151;DHT22;41041;43.162;20.538;2024-03-17T15:54:14;308.00;2304.00
55151;DHT22;41041;43.162;20.538;2024-03-17T15:56:41;308.00;2304.00
55151;DHT22;41041;43.162;20.538;2024-03-17T15:59:07;307.90;2304.00
55151;DHT22;41041;43.162;20.538;2024-03-17T16:01:33;307.90;2304.00
55151;DHT22;41041;43.162;20.538;2024-03-17T16:03:58;307.90;2304.00
55151;DHT22;41041;43.162;20.538;2024-03-17T16:06:24;307.90;2304.00
55151;DHT22;41041;43.162;20.538;2024-03-17T16:08:51;307.90;2304.00
55151;DHT22;41041;43.162;20.538;2024-03-17T16:11:23;308.00;2304.00
55151;DHT22;41041;43.162;20.538;2024-03-17T16:13:57;308.00;2304.00
55151;DHT22;41041;43.162;20.538;2024-03-17T16:16:24;308.00;2304.00
55151;DHT22;41041;43.162;20.538;2024-03-17T16:18:51;307.90;2304.00
55151;DHT22;41041;43.162;20.538;2024-03-17T16:21:21;307.90;2304.00
55151;DHT22;41041;43.162;20.538;2024-03-17T16:23:59;307.90;2304.00
55151;DHT22;41041;43.162;20.538;2024-03-17T16:26:27;307.80;2304.00
55151;DHT22;41041;43.162;20.538;2024-03-17T16:28:53;307.80;2304.00
55151;DHT22;41041;43.162;20.538;2024-03-17T16:31:23;307.70;2304.00
55151;DHT22;41041;43.162;20.538;2024-03-17T16:33:53;307.70;2304.00
55151;DHT22;41041;43.162;20.538;2024-03-17T16:36:19;307.70;2304.00
55151;DHT22;41041;43.162;20.538;2024-03-17T16:38:48;307.70;2304.00
55151;DHT22;41041;43.162;20.538;2024-03-17T16:41:14;307.60;2304.00
55151;DHT22;41041;43.162;20.538;2024-03-17T16:49:45;307.30;2304.00
55151;DHT22;41041;43.162;20.538;2024-03-17T16:52:11;307.20;2304.00
55151;DHT22;41041;43.162;20.538;2024-03-17T16:54:37;282.50;2278.40
55151;DHT22;41041;43.162;20.538;2024-03-17T16:57:15;307.20;2304.00
55151;DHT22;41041;43.162;20.538;2024-03-17T16:59:41;282.40;2278.40
55151;DHT22;41041;43.162;20.538;2024-03-17T17:24:22;281.60;2278.40
55151;DHT22;41041;43.162;20.538;2024-03-17T17:26:53;281.60;2278.40
55151;DHT22;41041;43.162;20.538;2024-03-17T17:29:20;256.90;2252.80
55151;DHT22;41041;43.162;20.538;2024-03-17T17:35:24;256.70;2252.80
55151;DHT22;41041;43.162;20.538;2024-03-17T17:47:54;256.50;2252.80
55151;DHT22;41041;43.162;20.538;2024-03-17T17:53:41;256.20;2252.80
55151;DHT22;41041;43.162;20.538;2024-03-17T17:56:13;256.10;2252.80
55151;DHT22;41041;43.162;20.538;2024-03-17T17:58:41;256.10;2252.80
55151;DHT22;41041;43.162;20.538;2024-03-17T18:01:11;256.10;2252.80
55151;DHT22;41041;43.162;20.538;2024-03-17T18:03:37;256.10;2252.80
55151;DHT22;41041;43.162;20.538;2024-03-17T20:16:20;204.80;2252.80
55151;DHT22;41041;43.162;20.538;2024-03-17T20:18:51;180.00;2252.80
55151;DHT22;41041;43.162;20.538;2024-03-17T20:21:17;180.00;2252.80
55151;DHT22;41041;43.162;20.538;2024-03-17T20:23:45;180.00;2073.60
55151;DHT22;41041;43.162;20.538;2024-03-17T20:26:12;180.00;2252.80
55151;DHT22;41041;43.162;20.538;2024-03-17T20:28:42;180.00;2252.80
55151;DHT22;41041;43.162;20.538;2024-03-17T20:31:17;179.90;2252.80
55151;DHT22;41041;43.162;20.538;2024-03-17T20:33:43;180.00;2252.80
55151;DHT22;41041;43.162;20.538;2024-03-17T20:36:12;180.00;2252.80
55151;DHT22;41041;43.162;20.538;2024-03-17T20:38:38;179.80;2252.80
55151;DHT22;41041;43.162;20.538;2024-03-17T20:41:08;179.70;2252.80
55151;DHT22;41041;43.162;20.538;2024-03-17T20:46:04;179.70;2252.80
55151;DHT22;41041;43.162;20.538;2024-03-17T20:48:40;179.60;2252.80
55151;DHT22;41041;43.162;20.538;2024-03-17T21:03:20;179.50;2252.80
55151;DHT22;41041;43.162;20.538;2024-03-17T21:05:46;179.30;2252.80
55151;DHT22;41041;43.162;20.538;2024-03-17T21:08:12;154.50;2252.80
55151;DHT22;41041;43.162;20.538;2024-03-17T21:10:44;154.50;2252.80
55151;DHT22;41041;43.162;20.538;2024-03-17T21:13:11;154.50;2252.80
55151;DHT22;41041;43.162;20.538;2024-03-17T21:18:03;154.40;2252.80
55151;DHT22;41041;43.162;20.538;2024-03-17T21:20:31;154.40;2252.80
55151;DHT22;41041;43.162;20.538;2024-03-17T21:42:39;154.20;2252.80
55151;DHT22;41041;43.162;20.538;2024-03-17T21:45:07;154.00;2252.80
